sensor_id;sensor_type;location;lat;lon;timestamp;temperature;humidity
9437;DHT22;4757;59.334;18.034;2022-10-16T00:01:09;13.00;99.90
9437;DHT22;4757;59.334;18.034;2022-10-16T00:03:38;12.90;99.90
9437;DHT22;4757;59.334;18.034;2022-10-16T00:06:07;12.90;99.90
9437;DHT22;4757;59.334;18.034;2022-10-16T00:08:35;12.90;99.90
9437;DHT22;4757;59.334;18.034;2022-10-16T00:11:06;12.90;99.90
9437;DHT22;4757;59.334;18.034;2022-10-16T00:13:35;12.90;99.90
9437;DHT22;4757;59.334;18.034;2022-10-16T00:16:03;12.90;99.90
9437;DHT22;4757;59.334;18.034;2022-10-16T00:18:31;12.90;99.90
9437;DHT22;4757;59.334;18.034;2022-10-16T00:21:09;13.00;99.90
9437;DHT22;4757;59.334;18.034;2022-10-16T00:23:37;12.90;99.90
9437;DHT22;4757;59.334;18.034;2022-10-16T00:26:08;13.00;99.90
9437;DHT22;4757;59.334;18.034;2022-10-16T00:28:35;13.00;99.90
9437;DHT22;4757;59.334;18.034;2022-10-16T00:31:04;12.90;99.90
9437;DHT22;4757;59.334;18.034;2022-10-16T00:33:33;12.90;99.90
9437;DHT22;4757;59.334;18.034;2022-10-16T00:36:01;12.90;99.90
9437;DHT22;4757;59.334;18.034;2022-10-16T00:38:29;12.90;99.90
9437;DHT22;4757;59.334;18.034;2022-10-16T00:40:56;12.90;99.90
9437;DHT22;4757;59.334;18.034;2022-10-16T00:49:16;12.80;99.90
9437;DHT22;4757;59.334;18.034;2022-10-16T00:51:49;12.90;99.90
9437;DHT22;4757;59.334;18.034;2022-10-16T00:54:20;12.80;99.90
9437;DHT22;4757;59.334;18.034;2022-10-16T00:56:51;12.80;99.90
9437;DHT22;4757;59.334;18.034;2022-10-16T00:59:36;12.80;99.90
9437;DHT22;4757;59.334;18.034;2022-10-16T01:02:05;12.80;99.90
9437;DHT22;4757;59.334;18.034;2022-10-16T01:04:38;12.80;99.90
9437;DHT22;4757;59.334;18.034;2022-10-16T01:10:30;12.80;99.90
9437;DHT22;4757;59.334;18.034;2022-10-16T01:13:04;12.80;99.90
9437;DHT22;4757;59.334;18.034;2022-10-16T01:18:08;12.70;99.90
9437;DHT22;4757;59.334;18.034;2022-10-16T01:20:58;12.70;99.90
9437;DHT22;4757;59.334;18.034;2022-10-16T01:29:05;12.70;99.90
9437;DHT22;4757;59.334;18.034;2022-10-16T01:31:36;12.70;99.90
9437;DHT22;4757;59.334;18.034;2022-10-16T01:34:10;12.70;99.90
9437;DHT22;4757;59.334;18.034;2022-10-16T01:36:45;12.70;99.90
9437;DHT22;4757;59.334;18.034;2022-10-16T01:39:20;12.70;99.90
9437;DHT22;4757;59.334;18.034;2022-10-16T01:42:30;12.70;99.90
9437;DHT22;4757;59.334;18.034;2022-10-16T01:44:51;12.70;99.90
9437;DHT22;4757;59.334;18.034;2022-10-16T01:47:22;12.80;99.90
9437;DHT22;4757;59.334;18.034;2022-10-16T01:49:52;12.80;99.90
9437;DHT22;4757;59.334;18.034;2022-10-16T01:52:23;12.80;99.90
9437;DHT22;4757;59.334;18.034;2022-10-16T01:54:54;12.80;99.90
9437;DHT22;4757;59.334;18.034;2022-10-16T01:57:23;12.70;99.90
9437;DHT22;4757;59.334;18.034;2022-10-16T01:59:55;12.70;99.90
9437;DHT22;4757;59.334;18.034;2022-10-16T02:02:26;12.70;99.90
9437;DHT22;4757;59.334;18.034;2022-10-16T02:05:10;12.70;99.90
9437;DHT22;4757;59.334;18.034;2022-10-16T02:07:39;12.70;99.90
9437;DHT22;4757;59.334;18.034;2022-10-16T02:10:09;12.70;99.90
9437;DHT22;4757;59.334;18.034;2022-10-16T02:12:41;12.70;99.90
9437;DHT22;4757;59.334;18.034;2022-10-16T02:15:10;12.70;99.90
9437;DHT22;4757;59.334;18.034;2022-10-16T02:17:37;12.70;99.90
9437;DHT22;4757;59.334;18.034;2022-10-16T02:20:05;12.70;99.90
9437;DHT22;4757;59.334;18.034;2022-10-16T02:22:36;12.70;99.90
9437;DHT22;4757;59.334;18.034;2022-10-16T02:25:30;12.70;99.90
9437;DHT22;4757;59.334;18.034;2022-10-16T02:30:44;12.70;99.90
9437;DHT22;4757;59.334;18.034;2022-10-16T02:33:17;12.70;99.90
9437;DHT22;4757;59.334;18.034;2022-10-16T02:35:49;12.70;99.90
9437;DHT22;4757;59.334;18.034;2022-10-16T02:38:18;12.70;99.90
9437;DHT22;4757;59.334;18.034;2022-10-16T02:40:47;12.70;99.90
9437;DHT22;4757;59.334;18.034;2022-10-16T02:43:15;12.70;99.90
9437;DHT22;4757;59.334;18.034;2022-10-16T02:45:43;12.70;99.90
9437;DHT22;4757;59.334;18.034;2022-10-16T02:48:10;12.70;99.90
9437;DHT22;4757;59.334;18.034;2022-10-16T02:50:38;12.80;99.90
9437;DHT22;4757;59.334;18.034;2022-10-16T02:53:05;12.80;99.90
9437;DHT22;4757;59.334;18.034;2022-10-16T02:55:32;12.80;99.90
9437;DHT22;4757;59.334;18.034;2022-10-16T02:57:59;12.80;99.90
9437;DHT22;4757;59.334;18.034;2022-10-16T03:00:26;12.80;99.90
9437;DHT22;4757;59.334;18.034;2022-10-16T03:02:53;12.80;99.90
9437;DHT22;4757;59.334;18.034;2022-10-16T03:05:20;12.80;99.90
9437;DHT22;4757;59.334;18.034;2022-10-16T03:07:47;12.70;99.90
9437;DHT22;4757;59.334;18.034;2022-10-16T03:10:15;12.80;99.90
9437;DHT22;4757;59.334;18.034;2022-10-16T03:12:42;12.80;99.90
9437;DHT22;4757;59.334;18.034;2022-10-16T03:15:09;12.80;99.90
9437;DHT22;4757;59.334;18.034;2022-10-16T03:17:36;12.80;99.90
9437;DHT22;4757;59.334;18.034;2022-10-16T03:20:05;12.80;99.90
9437;DHT22;4757;59.334;18.034;2022-10-16T03:22:32;12.70;99.90
9437;DHT22;4757;59.334;18.034;2022-10-16T03:24:59;12.70;99.90
9437;DHT22;4757;59.334;18.034;2022-10-16T03:27:26;12.70;99.90
9437;DHT22;4757;59.334;18.034;2022-10-16T03:29:54;12.60;99.90
9437;DHT22;4757;59.334;18.034;2022-10-16T03:32:21;12.60;99.90
9437;DHT22;4757;59.334;18.034;2022-10-16T03:34:50;12.60;99.90
9437;DHT22;4757;59.334;18.034;2022-10-16T03:37:17;12.60;99.90
9437;DHT22;4757;59.334;18.034;2022-10-16T03:39:44;12.50;99.90
9437;DHT22;4757;59.334;18.034;2022-10-16T03:42:11;12.60;99.90
9437;DHT22;4757;59.334;18.034;2022-10-16T03:44:40;12.60;99.90
9437;DHT22;4757;59.334;18.034;2022-10-16T03:47:07;12.50;99.90
9437;DHT22;4757;59.334;18.034;2022-10-16T03:49:34;12.50;99.90
9437;DHT22;4757;59.334;18.034;2022-10-16T03:52:01;12.50;99.90
9437;DHT22;4757;59.334;18.034;2022-10-16T03:54:29;12.40;99.90
9437;DHT22;4757;59.334;18.034;2022-10-16T03:56:56;12.40;99.90
9437;DHT22;4757;59.334;18.034;2022-10-16T03:59:23;12.40;99.90
9437;DHT22;4757;59.334;18.034;2022-10-16T04:01:50;12.40;99.90
9437;DHT22;4757;59.334;18.034;2022-10-16T04:04:17;12.40;99.90
9437;DHT22;4757;59.334;18.034;2022-10-16T04:06:45;12.40;99.90
9437;DHT22;4757;59.334;18.034;2022-10-16T04:09:12;12.30;99.90
9437;DHT22;4757;59.334;18.034;2022-10-16T04:11:39;12.30;99.90
9437;DHT22;4757;59.334;18.034;2022-10-16T04:14:06;12.30;99.90
9437;DHT22;4757;59.334;18.034;2022-10-16T04:16:33;12.40;99.90
9437;DHT22;4757;59.334;18.034;2022-10-16T04:19:01;12.30;99.90
9437;DHT22;4757;59.334;18.034;2022-10-16T04:21:28;12.30;99.90
9437;DHT22;4757;59.334;18.034;2022-10-16T04:23:55;12.30;99.90
9437;DHT22;4757;59.334;18.034;2022-10-16T04:26:22;12.30;99.90
9437;DHT22;4757;59.334;18.034;2022-10-16T04:28:49;12.30;99.90
9437;DHT22;4757;59.334;18.034;2022-10-16T04:31:16;12.30;99.90
9437;DHT22;4757;59.334;18.034;2022-10-16T04:33:44;12.30;99.90
9437;DHT22;4757;59.334;18.034;2022-10-16T04:36:11;12.30;99.90
9437;DHT22;4757;59.334;18.034;2022-10-16T04:38:38;12.20;99.90
9437;DHT22;4757;59.334;18.034;2022-10-16T04:41:06;12.20;99.90
9437;DHT22;4757;59.334;18.034;2022-10-16T04:43:34;12.20;99.90
9437;DHT22;4757;59.334;18.034;2022-10-16T04:46:01;12.20;99.90
9437;DHT22;4757;59.334;18.034;2022-10-16T04:48:28;12.20;99.90
9437;DHT22;4757;59.334;18.034;2022-10-16T04:50:55;12.20;99.90
9437;DHT22;4757;59.334;18.034;2022-10-16T04:53:22;12.10;99.90
9437;DHT22;4757;59.334;18.034;2022-10-16T04:55:50;12.10;99.90
9437;DHT22;4757;59.334;18.034;2022-10-16T04:58:17;12.10;99.90
9437;DHT22;4757;59.334;18.034;2022-10-16T05:00:45;12.10;99.90
9437;DHT22;4757;59.334;18.034;2022-10-16T05:03:13;12.00;99.90
9437;DHT22;4757;59.334;18.034;2022-10-16T05:05:45;12.10;99.90
9437;DHT22;4757;59.334;18.034;2022-10-16T05:08:13;12.10;99.90
9437;DHT22;4757;59.334;18.034;2022-10-16T05:10:41;12.10;99.90
9437;DHT22;4757;59.334;18.034;2022-10-16T05:13:09;12.10;99.90
9437;DHT22;4757;59.334;18.034;2022-10-16T05:15:37;12.10;99.90
9437;DHT22;4757;59.334;18.034;2022-10-16T05:18:04;12.10;99.90
9437;DHT22;4757;59.334;18.034;2022-10-16T05:20:31;12.10;99.90
9437;DHT22;4757;59.334;18.034;2022-10-16T05:22:58;12.10;99.90
9437;DHT22;4757;59.334;18.034;2022-10-16T05:25:25;12.10;99.90
9437;DHT22;4757;59.334;18.034;2022-10-16T05:27:52;12.10;99.90
9437;DHT22;4757;59.334;18.034;2022-10-16T05:30:19;12.10;99.90
9437;DHT22;4757;59.334;18.034;2022-10-16T05:32:48;12.10;99.90
9437;DHT22;4757;59.334;18.034;2022-10-16T05:35:17;12.20;99.90
9437;DHT22;4757;59.334;18.034;2022-10-16T05:37:45;12.20;99.90
9437;DHT22;4757;59.334;18.034;2022-10-16T05:40:12;12.10;99.90
9437;DHT22;4757;59.334;18.034;2022-10-16T05:42:40;12.10;99.90
9437;DHT22;4757;59.334;18.034;2022-10-16T05:45:09;12.10;99.90
9437;DHT22;4757;59.334;18.034;2022-10-16T05:47:37;12.10;99.90
9437;DHT22;4757;59.334;18.034;2022-10-16T05:50:05;12.20;99.90
9437;DHT22;4757;59.334;18.034;2022-10-16T05:52:32;12.10;99.90
9437;DHT22;4757;59.334;18.034;2022-10-16T05:54:59;12.20;99.90
9437;DHT22;4757;59.334;18.034;2022-10-16T05:57:26;12.20;99.90
9437;DHT22;4757;59.334;18.034;2022-10-16T05:59:53;12.20;99.90
9437;DHT22;4757;59.334;18.034;2022-10-16T06:02:20;12.20;99.90
9437;DHT22;4757;59.334;18.034;2022-10-16T06:04:48;12.20;99.90
9437;DHT22;4757;59.334;18.034;2022-10-16T06:07:15;12.20;99.90
9437;DHT22;4757;59.334;18.034;2022-10-16T06:09:43;12.30;99.90
9437;DHT22;4757;59.334;18.034;2022-10-16T06:12:11;12.30;99.90
9437;DHT22;4757;59.334;18.034;2022-10-16T06:14:38;12.30;99.90
9437;DHT22;4757;59.334;18.034;2022-10-16T06:17:05;12.30;99.90
9437;DHT22;4757;59.334;18.034;2022-10-16T06:19:32;12.30;99.90
9437;DHT22;4757;59.334;18.034;2022-10-16T06:21:59;12.40;99.90
9437;DHT22;4757;59.334;18.034;2022-10-16T06:24:28;12.40;99.90
9437;DHT22;4757;59.334;18.034;2022-10-16T06:26:55;12.40;99.90
9437;DHT22;4757;59.334;18.034;2022-10-16T06:29:22;12.40;99.90
9437;DHT22;4757;59.334;18.034;2022-10-16T06:31:49;12.50;99.90
9437;DHT22;4757;59.334;18.034;2022-10-16T06:34:16;12.50;99.90
9437;DHT22;4757;59.334;18.034;2022-10-16T06:36:43;12.60;99.90
9437;DHT22;4757;59.334;18.034;2022-10-16T06:39:10;12.60;99.90
9437;DHT22;4757;59.334;18.034;2022-10-16T06:41:37;12.60;99.90
9437;DHT22;4757;59.334;18.034;2022-10-16T06:44:05;12.60;99.90
9437;DHT22;4757;59.334;18.034;2022-10-16T06:46:33;12.60;99.90
9437;DHT22;4757;59.334;18.034;2022-10-16T06:49:01;12.70;99.90
9437;DHT22;4757;59.334;18.034;2022-10-16T06:51:28;12.70;99.90
9437;DHT22;4757;59.334;18.034;2022-10-16T06:53:56;12.70;99.90
9437;DHT22;4757;59.334;18.034;2022-10-16T06:56:32;12.80;99.90
9437;DHT22;4757;59.334;18.034;2022-10-16T06:59:00;12.80;99.90
9437;DHT22;4757;59.334;18.034;2022-10-16T07:01:28;12.80;99.90
9437;DHT22;4757;59.334;18.034;2022-10-16T07:03:55;12.80;99.90
9437;DHT22;4757;59.334;18.034;2022-10-16T07:06:24;12.90;99.90
9437;DHT22;4757;59.334;18.034;2022-10-16T07:08:51;12.90;99.90
9437;DHT22;4757;59.334;18.034;2022-10-16T07:11:21;12.90;99.90
9437;DHT22;4757;59.334;18.034;2022-10-16T07:13:49;13.00;99.90
9437;DHT22;4757;59.334;18.034;2022-10-16T07:16:24;13.00;99.90
9437;DHT22;4757;59.334;18.034;2022-10-16T07:18:56;13.00;99.90
9437;DHT22;4757;59.334;18.034;2022-10-16T07:21:32;13.00;99.90
9437;DHT22;4757;59.334;18.034;2022-10-16T07:24:04;13.00;99.90
9437;DHT22;4757;59.334;18.034;2022-10-16T07:26:35;13.00;99.90
9437;DHT22;4757;59.334;18.034;2022-10-16T07:29:02;13.00;99.90
9437;DHT22;4757;59.334;18.034;2022-10-16T07:31:30;13.00;99.90
9437;DHT22;4757;59.334;18.034;2022-10-16T07:33:59;13.00;99.90
9437;DHT22;4757;59.334;18.034;2022-10-16T07:36:27;13.10;99.90
9437;DHT22;4757;59.334;18.034;2022-10-16T07:38:54;13.00;99.90
9437;DHT22;4757;59.334;18.034;2022-10-16T07:41:26;13.00;99.90
9437;DHT22;4757;59.334;18.034;2022-10-16T07:43:54;13.10;99.90
9437;DHT22;4757;59.334;18.034;2022-10-16T07:46:22;13.10;99.90
9437;DHT22;4757;59.334;18.034;2022-10-16T07:48:50;13.10;99.90
9437;DHT22;4757;59.334;18.034;2022-10-16T07:51:22;13.10;99.90
9437;DHT22;4757;59.334;18.034;2022-10-16T07:53:49;13.10;99.90
9437;DHT22;4757;59.334;18.034;2022-10-16T07:56:19;13.10;99.90
9437;DHT22;4757;59.334;18.034;2022-10-16T07:58:46;13.10;99.90
9437;DHT22;4757;59.334;18.034;2022-10-16T08:01:15;13.10;99.90
9437;DHT22;4757;59.334;18.034;2022-10-16T08:03:44;13.10;99.90
9437;DHT22;4757;59.334;18.034;2022-10-16T08:06:11;13.10;99.90
9437;DHT22;4757;59.334;18.034;2022-10-16T08:08:38;13.10;99.90
9437;DHT22;4757;59.334;18.034;2022-10-16T08:11:05;13.10;99.90
9437;DHT22;4757;59.334;18.034;2022-10-16T08:13:32;13.00;99.90
9437;DHT22;4757;59.334;18.034;2022-10-16T08:15:59;13.10;99.90
9437;DHT22;4757;59.334;18.034;2022-10-16T08:18:27;13.10;99.90
9437;DHT22;4757;59.334;18.034;2022-10-16T08:20:59;13.10;99.90
9437;DHT22;4757;59.334;18.034;2022-10-16T08:23:27;13.10;99.90
9437;DHT22;4757;59.334;18.034;2022-10-16T08:25:55;13.10;99.90
9437;DHT22;4757;59.334;18.034;2022-10-16T08:28:23;13.20;99.90
9437;DHT22;4757;59.334;18.034;2022-10-16T08:30:51;13.10;99.90
9437;DHT22;4757;59.334;18.034;2022-10-16T08:33:18;13.10;99.90
9437;DHT22;4757;59.334;18.034;2022-10-16T08:35:52;13.10;99.90
9437;DHT22;4757;59.334;18.034;2022-10-16T08:38:20;13.10;99.90
9437;DHT22;4757;59.334;18.034;2022-10-16T08:40:48;13.10;99.90
9437;DHT22;4757;59.334;18.034;2022-10-16T08:48:47;13.20;99.90
9437;DHT22;4757;59.334;18.034;2022-10-16T08:51:36;13.20;99.90
9437;DHT22;4757;59.334;18.034;2022-10-16T08:54:41;13.20;99.90
9437;DHT22;4757;59.334;18.034;2022-10-16T08:57:19;13.20;99.90
9437;DHT22;4757;59.334;18.034;2022-10-16T08:59:51;13.20;99.90
9437;DHT22;4757;59.334;18.034;2022-10-16T09:02:52;13.30;99.90
9437;DHT22;4757;59.334;18.034;2022-10-16T09:08:37;13.30;99.90
9437;DHT22;4757;59.334;18.034;2022-10-16T09:19:53;13.30;99.90
9437;DHT22;4757;59.334;18.034;2022-10-16T09:22:26;13.40;99.90
9437;DHT22;4757;59.334;18.034;2022-10-16T09:25:00;13.40;99.90
9437;DHT22;4757;59.334;18.034;2022-10-16T09:27:28;13.40;99.90
9437;DHT22;4757;59.334;18.034;2022-10-16T09:29:57;13.50;99.90
9437;DHT22;4757;59.334;18.034;2022-10-16T09:32:26;13.50;99.90
9437;DHT22;4757;59.334;18.034;2022-10-16T10:09:40;13.90;99.90
9437;DHT22;4757;59.334;18.034;2022-10-16T10:12:27;13.90;99.90
9437;DHT22;4757;59.334;18.034;2022-10-16T10:14:56;14.00;99.90
9437;DHT22;4757;59.334;18.034;2022-10-16T10:17:28;14.10;99.90
9437;DHT22;4757;59.334;18.034;2022-10-16T10:20:14;14.10;99.90
9437;DHT22;4757;59.334;18.034;2022-10-16T10:22:43;13.90;99.90
9437;DHT22;4757;59.334;18.034;2022-10-16T10:28:00;14.10;99.90
9437;DHT22;4757;59.334;18.034;2022-10-16T10:53:18;14.30;99.90
9437;DHT22;4757;59.334;18.034;2022-10-16T10:56:21;14.40;99.90
9437;DHT22;4757;59.334;18.034;2022-10-16T10:59:32;14.40;99.90
9437;DHT22;4757;59.334;18.034;2022-10-16T11:02:52;14.40;99.90
9437;DHT22;4757;59.334;18.034;2022-10-16T11:06:19;14.30;99.90
9437;DHT22;4757;59.334;18.034;2022-10-16T11:12:37;14.30;99.90
9437;DHT22;4757;59.334;18.034;2022-10-16T11:15:37;14.40;99.90
9437;DHT22;4757;59.334;18.034;2022-10-16T11:22:50;14.30;99.90
9437;DHT22;4757;59.334;18.034;2022-10-16T11:25:27;14.30;99.90
9437;DHT22;4757;59.334;18.034;2022-10-16T11:30:51;14.50;99.90
9437;DHT22;4757;59.334;18.034;2022-10-16T11:33:30;14.60;99.90
9437;DHT22;4757;59.334;18.034;2022-10-16T11:39:26;14.70;99.90
9437;DHT22;4757;59.334;18.034;2022-10-16T11:42:22;14.70;99.90
9437;DHT22;4757;59.334;18.034;2022-10-16T11:45:30;14.80;99.90
9437;DHT22;4757;59.334;18.034;2022-10-16T11:54:01;14.50;99.90
9437;DHT22;4757;59.334;18.034;2022-10-16T11:56:32;14.50;99.90
9437;DHT22;4757;59.334;18.034;2022-10-16T11:59:03;14.50;99.90
9437;DHT22;4757;59.334;18.034;2022-10-16T12:01:51;14.50;99.90
9437;DHT22;4757;59.334;18.034;2022-10-16T12:04:32;14.50;99.90
9437;DHT22;4757;59.334;18.034;2022-10-16T12:07:10;14.60;99.90
9437;DHT22;4757;59.334;18.034;2022-10-16T12:09:40;14.70;99.90
9437;DHT22;4757;59.334;18.034;2022-10-16T12:31:03;14.80;99.90
9437;DHT22;4757;59.334;18.034;2022-10-16T12:34:41;15.10;99.90
9437;DHT22;4757;59.334;18.034;2022-10-16T12:38:03;14.80;99.90
9437;DHT22;4757;59.334;18.034;2022-10-16T12:41:09;14.40;99.90
9437;DHT22;4757;59.334;18.034;2022-10-16T13:30:20;14.70;99.90
9437;DHT22;4757;59.334;18.034;2022-10-16T13:35:54;14.70;99.90
9437;DHT22;4757;59.334;18.034;2022-10-16T13:38:23;14.70;99.90
9437;DHT22;4757;59.334;18.034;2022-10-16T13:56:22;14.50;99.90
9437;DHT22;4757;59.334;18.034;2022-10-16T13:59:56;14.50;99.90
9437;DHT22;4757;59.334;18.034;2022-10-16T14:09:36;14.60;99.90
9437;DHT22;4757;59.334;18.034;2022-10-16T14:12:27;14.50;99.90
9437;DHT22;4757;59.334;18.034;2022-10-16T14:19:13;14.50;99.90
9437;DHT22;4757;59.334;18.034;2022-10-16T14:25:25;14.30;99.90
9437;DHT22;4757;59.334;18.034;2022-10-16T14:28:18;14.30;99.90
9437;DHT22;4757;59.334;18.034;2022-10-16T14:30:54;14.20;99.90
9437;DHT22;4757;59.334;18.034;2022-10-16T14:33:31;14.20;99.90
9437;DHT22;4757;59.334;18.034;2022-10-16T14:36:04;14.10;99.90
9437;DHT22;4757;59.334;18.034;2022-10-16T14:38:32;14.10;99.90
9437;DHT22;4757;59.334;18.034;2022-10-16T14:41:00;14.00;99.90
9437;DHT22;4757;59.334;18.034;2022-10-16T14:43:37;14.00;99.90
9437;DHT22;4757;59.334;18.034;2022-10-16T14:46:13;14.00;99.90
9437;DHT22;4757;59.334;18.034;2022-10-16T14:48:42;13.90;99.90
9437;DHT22;4757;59.334;18.034;2022-10-16T14:51:17;13.90;99.90
9437;DHT22;4757;59.334;18.034;2022-10-16T14:53:45;13.90;99.90
9437;DHT22;4757;59.334;18.034;2022-10-16T14:56:24;13.90;99.90
9437;DHT22;4757;59.334;18.034;2022-10-16T14:59:13;13.80;99.90
9437;DHT22;4757;59.334;18.034;2022-10-16T15:01:43;13.90;99.90
9437;DHT22;4757;59.334;18.034;2022-10-16T15:04:12;13.80;99.90
9437;DHT22;4757;59.334;18.034;2022-10-16T15:06:41;13.80;99.90
9437;DHT22;4757;59.334;18.034;2022-10-16T15:09:08;13.70;99.90
9437;DHT22;4757;59.334;18.034;2022-10-16T15:11:36;13.70;99.90
9437;DHT22;4757;59.334;18.034;2022-10-16T15:14:03;13.70;99.90
9437;DHT22;4757;59.334;18.034;2022-10-16T15:16:31;13.70;99.90
9437;DHT22;4757;59.334;18.034;2022-10-16T15:18:58;13.70;99.90
9437;DHT22;4757;59.334;18.034;2022-10-16T15:21:30;13.70;99.90
9437;DHT22;4757;59.334;18.034;2022-10-16T15:23:59;13.70;99.90
9437;DHT22;4757;59.334;18.034;2022-10-16T15:26:28;13.70;99.90
9437;DHT22;4757;59.334;18.034;2022-10-16T15:28:55;13.50;99.90
9437;DHT22;4757;59.334;18.034;2022-10-16T15:31:23;12.50;99.90
9437;DHT22;4757;59.334;18.034;2022-10-16T15:33:54;11.60;99.90
9437;DHT22;4757;59.334;18.034;2022-10-16T15:36:37;11.20;99.90
9437;DHT22;4757;59.334;18.034;2022-10-16T15:40:05;11.00;99.90
9437;DHT22;4757;59.334;18.034;2022-10-16T15:43:46;10.80;99.90
9437;DHT22;4757;59.334;18.034;2022-10-16T15:46:55;10.50;99.90
9437;DHT22;4757;59.334;18.034;2022-10-16T15:53:43;10.30;99.90
9437;DHT22;4757;59.334;18.034;2022-10-16T15:57:27;10.20;99.90
9437;DHT22;4757;59.334;18.034;2022-10-16T16:03:08;10.20;99.90
